• Join FlightAware (Why Join?)
  • Login
  • US Flag 
05:33AM EDT


 

Airport Tracker/Info


-or-


 

Live Flight TrackerFlight Track Log ✈ AWE1600 ✈ 19-Jul-2013 ✈ KPHL - KDTW

Flight Track Log - Related Links

Times and Time Zones

All times are in EDT time to prevent confusion due to time zone crossing. See the AWE1600 flight status page for this flight to view local times or setup timezone preferences in your user account.

Time Position Orientation Groundspeed Altitude Reporting Facility
EDT Latitude Longitude Course Direction KTS MPH feet Rate Location/Type
09:18AM 39.8667 -75.2833 270° West 146 168 900  Level Philadelphia TRACON
09:20AM 39.9000 -75.5848 270° West  Level FlightAware Approximate
09:20AM 39.8361 -75.4261 254° West 202 232 5,700  Level New York Center
09:21AM 39.9108 -75.7020 258° West  Level FlightAware Approximate
09:21AM 39.8661 -75.5119 295° West 228 262 8,000  Level New York Center
09:22AM 39.9000 -75.8220 270° West  Level FlightAware Approximate
09:22AM 39.8831 -75.6078 283° West 272 313 10,700  Level New York Center
09:23AM 39.9000 -75.9434 270° West  Level FlightAware Approximate
09:23AM 39.8947 -75.7250 277° West 300 345 12,100  Level New York Center
09:24AM 39.9500 -76.0695 270° West  Level FlightAware Approximate
09:24AM 39.9042 -75.8475 276° West 347 399 14,700  Level New York Center
09:25AM 39.9172 -75.9756 278° West 354 407 16,900 1,980 Climbing New York Center
09:26AM 39.9281 -76.1064 276° West 362 417 18,800 1,800 Climbing New York Center
09:27AM 39.9406 -76.2481 277° West 377 434 20,600 1,560 Climbing New York Center
09:28AM 39.9500 -76.3572 276° West 388 447 22,000 1,740 Climbing New York Center
09:29AM 39.9644 -76.5319 276° West 404 465 24,100 1,620 Climbing New York Center
09:30AM 39.9736 -76.6817 275° West 412 474 25,300 1,200 Climbing New York Center
09:31AM 39.9869 -76.8319 277° West 417 480 26,600 1,320 Climbing New York Center
09:32AM 39.9997 -76.9875 276° West 428 493 27,900 1,380 Climbing New York Center
09:33AM 40.0081 -77.1428 274° West 428 493 29,400 1,380 Climbing New York Center
09:34AM 40.0228 -77.2958 277° West 428 493 30,800 1,260 Climbing New York Center
09:35AM 40.0328 -77.4486 275° West 428 493 32,000 1,080 Climbing New York Center
09:37AM 40.0569 -77.7539 276° West 421 484 34,000 660 Climbing Cleveland Center
09:38AM 40.0756 -77.9133 279° West 427 491 34,000  Level Cleveland Center
09:39AM 40.1228 -78.0717 291° West 457 526 34,000  Level Cleveland Center
09:40AM 40.1761 -78.2272 294° West 462 532 34,000  Level Cleveland Center
09:41AM 40.2275 -78.3886 293° West 468 539 34,000  Level Cleveland Center
09:42AM 40.2761 -78.5447 292° West 468 539 34,000  Level Cleveland Center
09:43AM 40.3269 -78.7039 293° West 468 539 34,000  Level Cleveland Center
09:44AM 40.3753 -78.8606 292° West 468 539 34,000  Level Cleveland Center
09:45AM 40.4275 -79.0175 294° West 468 539 34,000 -720 Level Cleveland Center
09:46AM 40.4756 -79.1775 292° West 468 539 32,600 -1,020 Descending Cleveland Center
09:47AM 40.5272 -79.3347 293° West 468 539 32,000 -540 Descending Cleveland Center
09:48AM 40.5769 -79.4897 293° West 468 539 31,600 -840 Descending Cleveland Center
09:49AM 40.6242 -79.6475 292° West 468 539 30,400 -840 Descending Cleveland Center
09:50AM 40.6733 -79.8056 292° West 468 539 30,000 -240 Descending Cleveland Center
09:51AM 40.7222 -79.9639 292° West 468 539 30,000 -120 Level Cleveland Center
09:52AM 40.7689 -80.1308 290° West 473 544 29,800 -720 Descending Cleveland Center
09:53AM 40.8153 -80.2842 292° West 467 537 28,600 -900 Descending Cleveland Center
09:54AM 40.8614 -80.4375 292° West 462 532 28,000 -300 Descending Cleveland Center
09:55AM 40.9072 -80.5886 292° West 451 519 28,000  Level Cleveland Center
09:56AM 40.9550 -80.7453 292° West 451 519 28,000  Level Cleveland Center
09:57AM 41.0006 -80.9022 291° West 451 519 28,000  Level Cleveland Center
09:58AM 41.0458 -81.0594 291° West 451 519 28,000  Level Cleveland Center
09:59AM 41.0847 -81.2031 290° West 462 532 28,000 -300 Level Cleveland Center
10:00AM 41.1297 -81.3578 291° West 456 525 27,500 -900 Descending Cleveland Center
10:01AM 41.1786 -81.5211 292° West 445 512 26,300 -1,200 Descending Cleveland Center
10:02AM 41.2189 -81.6681 290° West 433 498 25,100 -1,200 Descending Cleveland Center
10:03AM 41.2633 -81.8122 292° West 428 493 24,000 -600 Descending Cleveland Center
10:04AM 41.3033 -81.9542 291° West 428 493 24,000  Level Cleveland Center
10:05AM 41.3456 -82.0961 292° West 422 486 24,000 -1,260 Level Cleveland Center
10:06AM 41.3897 -82.2189 296° West 417 480 21,500 -2,640 Descending Cleveland Center
10:07AM 41.4567 -82.3314 308° West 402 463 18,800 -2,700 Descending Cleveland Center
10:08AM 41.5239 -82.4414 309° West 387 445 16,200 -2,460 Descending Cleveland Center
10:09AM 41.5867 -82.5458 309° West 371 427 13,900 -2,100 Descending Cleveland Center
10:10AM 41.6392 -82.6364 308° West 361 415 12,100 -960 Descending Cleveland Center
10:11AM 41.7039 -82.7469 308° West 351 404 12,000 -60 Descending Cleveland Center
10:12AM 41.7689 -82.8356 315° West 346 398 12,000  Level Cleveland Center
10:13AM 41.8464 -82.9247 319° Northwest 345 397 12,000  Level Cleveland Center
10:14AM 41.9175 -83.0108 318° Northwest 345 397 12,000  Level Cleveland Center
10:15AM 41.9867 -83.0944 318° Northwest 341 392 12,000  Level Cleveland Center
10:16AM 42.0497 -83.1697 318° Northwest 326 375 12,000  Level Cleveland Center
10:17AM 42.1003 -83.2361 316° Northwest 259 298 12,000 -840 Level Cleveland Center
10:18AM 42.1694 -83.2167 12° North 208 239 10,400 -2,040 Descending Cleveland Center
10:19AM 42.2331 -83.1717 28° Northeast 247 284 8,000 -2,160 Descending Cleveland Center
10:20AM 42.2964 -83.1322 25° Northeast 253 291 6,100 -1,860 Descending Cleveland Center
10:21AM 42.3506 -83.1400 354° North 220 253 4,300 -1,140 Descending Cleveland Center
10:23AM 42.3406 -83.2153 260° West 164 189 3,500 -600 Descending Cleveland Center